sensor_id;sensor_type;location;lat;lon;timestamp;P1;durP1;ratioP1;P2;durP2;ratioP2
56073;SDS011;41950;55.840;37.442;2023-07-13T00:00:24;3.50;;;2.20;;
56073;SDS011;41950;55.840;37.442;2023-07-13T00:02:50;3.38;;;1.83;;
56073;SDS011;41950;55.840;37.442;2023-07-13T00:05:19;3.28;;;1.95;;
56073;SDS011;41950;55.840;37.442;2023-07-13T00:07:46;4.13;;;2.15;;
56073;SDS011;41950;55.840;37.442;2023-07-13T00:10:11;3.08;;;2.03;;
56073;SDS011;41950;55.840;37.442;2023-07-13T00:12:38;4.50;;;2.28;;
56073;SDS011;41950;55.840;37.442;2023-07-13T00:15:06;4.55;;;2.28;;
56073;SDS011;41950;55.840;37.442;2023-07-13T00:17:36;3.42;;;2.10;;
56073;SDS011;41950;55.840;37.442;2023-07-13T00:20:03;3.67;;;2.05;;
56073;SDS011;41950;55.840;37.442;2023-07-13T00:22:30;4.00;;;2.10;;
56073;SDS011;41950;55.840;37.442;2023-07-13T00:24:56;3.08;;;1.70;;
56073;SDS011;41950;55.840;37.442;2023-07-13T00:27:22;3.58;;;1.92;;
56073;SDS011;41950;55.840;37.442;2023-07-13T00:29:48;4.00;;;1.90;;
56073;SDS011;41950;55.840;37.442;2023-07-13T00:32:14;4.35;;;2.42;;
56073;SDS011;41950;55.840;37.442;2023-07-13T00:34:40;4.35;;;2.03;;
56073;SDS011;41950;55.840;37.442;2023-07-13T00:37:06;5.72;;;2.03;;
56073;SDS011;41950;55.840;37.442;2023-07-13T00:39:33;4.65;;;2.10;;
56073;SDS011;41950;55.840;37.442;2023-07-13T00:41:59;3.42;;;1.90;;
56073;SDS011;41950;55.840;37.442;2023-07-13T00:44:25;3.13;;;1.83;;
56073;SDS011;41950;55.840;37.442;2023-07-13T00:46:51;3.58;;;2.20;;
56073;SDS011;41950;55.840;37.442;2023-07-13T00:49:21;3.78;;;2.20;;
56073;SDS011;41950;55.840;37.442;2023-07-13T00:52:03;4.40;;;1.98;;
56073;SDS011;41950;55.840;37.442;2023-07-13T00:54:37;5.38;;;2.08;;
56073;SDS011;41950;55.840;37.442;2023-07-13T00:57:07;4.95;;;2.20;;
56073;SDS011;41950;55.840;37.442;2023-07-13T00:59:41;3.35;;;1.95;;
56073;SDS011;41950;55.840;37.442;2023-07-13T01:02:10;3.47;;;2.30;;
56073;SDS011;41950;55.840;37.442;2023-07-13T01:04:37;3.83;;;2.25;;
56073;SDS011;41950;55.840;37.442;2023-07-13T01:07:03;4.55;;;2.28;;
56073;SDS011;41950;55.840;37.442;2023-07-13T01:09:31;4.30;;;2.22;;
56073;SDS011;41950;55.840;37.442;2023-07-13T01:11:57;7.47;;;2.85;;
56073;SDS011;41950;55.840;37.442;2023-07-13T01:14:24;4.95;;;2.20;;
56073;SDS011;41950;55.840;37.442;2023-07-13T01:16:50;4.53;;;2.60;;
56073;SDS011;41950;55.840;37.442;2023-07-13T01:22:08;3.72;;;2.35;;
56073;SDS011;41950;55.840;37.442;2023-07-13T01:24:37;4.78;;;2.40;;
56073;SDS011;41950;55.840;37.442;2023-07-13T01:27:04;4.22;;;2.25;;
56073;SDS011;41950;55.840;37.442;2023-07-13T01:29:32;3.95;;;2.33;;
56073;SDS011;41950;55.840;37.442;2023-07-13T01:31:59;3.90;;;2.08;;
56073;SDS011;41950;55.840;37.442;2023-07-13T01:34:26;4.25;;;2.50;;
56073;SDS011;41950;55.840;37.442;2023-07-13T01:36:53;4.25;;;2.40;;
56073;SDS011;41950;55.840;37.442;2023-07-13T01:39:21;4.03;;;2.25;;
56073;SDS011;41950;55.840;37.442;2023-07-13T01:41:47;4.47;;;2.30;;
56073;SDS011;41950;55.840;37.442;2023-07-13T01:44:13;4.45;;;2.78;;
56073;SDS011;41950;55.840;37.442;2023-07-13T01:46:39;5.63;;;2.75;;
56073;SDS011;41950;55.840;37.442;2023-07-13T01:49:05;3.85;;;2.20;;
56073;SDS011;41950;55.840;37.442;2023-07-13T01:51:30;3.20;;;2.05;;
56073;SDS011;41950;55.840;37.442;2023-07-13T01:53:56;4.22;;;2.35;;
56073;SDS011;41950;55.840;37.442;2023-07-13T01:56:21;4.15;;;2.67;;
56073;SDS011;41950;55.840;37.442;2023-07-13T01:58:47;3.83;;;2.63;;
56073;SDS011;41950;55.840;37.442;2023-07-13T02:01:13;3.38;;;2.38;;
56073;SDS011;41950;55.840;37.442;2023-07-13T02:03:39;3.83;;;2.30;;
56073;SDS011;41950;55.840;37.442;2023-07-13T02:06:04;3.90;;;2.30;;
56073;SDS011;41950;55.840;37.442;2023-07-13T02:08:31;4.65;;;2.20;;
56073;SDS011;41950;55.840;37.442;2023-07-13T02:10:57;3.97;;;2.50;;
56073;SDS011;41950;55.840;37.442;2023-07-13T02:13:23;4.78;;;2.42;;
56073;SDS011;41950;55.840;37.442;2023-07-13T02:15:52;3.97;;;2.40;;
56073;SDS011;41950;55.840;37.442;2023-07-13T02:18:17;4.70;;;2.63;;
56073;SDS011;41950;55.840;37.442;2023-07-13T02:21:03;4.43;;;2.70;;
56073;SDS011;41950;55.840;37.442;2023-07-13T02:23:29;3.58;;;2.35;;
56073;SDS011;41950;55.840;37.442;2023-07-13T02:25:55;5.15;;;2.40;;
56073;SDS011;41950;55.840;37.442;2023-07-13T02:28:21;4.53;;;2.55;;
56073;SDS011;41950;55.840;37.442;2023-07-13T02:30:47;4.72;;;2.42;;
56073;SDS011;41950;55.840;37.442;2023-07-13T02:33:13;3.90;;;2.50;;
56073;SDS011;41950;55.840;37.442;2023-07-13T02:35:38;3.78;;;2.15;;
56073;SDS011;41950;55.840;37.442;2023-07-13T02:38:04;4.80;;;2.35;;
56073;SDS011;41950;55.840;37.442;2023-07-13T02:40:30;4.28;;;2.60;;
56073;SDS011;41950;55.840;37.442;2023-07-13T02:42:58;4.95;;;2.40;;
56073;SDS011;41950;55.840;37.442;2023-07-13T02:45:25;4.18;;;2.65;;
56073;SDS011;41950;55.840;37.442;2023-07-13T02:47:50;5.57;;;2.55;;
56073;SDS011;41950;55.840;37.442;2023-07-13T02:50:16;3.78;;;2.50;;
56073;SDS011;41950;55.840;37.442;2023-07-13T02:52:42;4.43;;;2.40;;
56073;SDS011;41950;55.840;37.442;2023-07-13T02:55:08;5.15;;;2.55;;
56073;SDS011;41950;55.840;37.442;2023-07-13T02:57:34;3.70;;;2.53;;
56073;SDS011;41950;55.840;37.442;2023-07-13T03:00:00;5.35;;;2.50;;
56073;SDS011;41950;55.840;37.442;2023-07-13T03:02:30;5.20;;;2.70;;
56073;SDS011;41950;55.840;37.442;2023-07-13T03:04:57;4.47;;;2.67;;
56073;SDS011;41950;55.840;37.442;2023-07-13T03:07:23;5.07;;;2.55;;
56073;SDS011;41950;55.840;37.442;2023-07-13T03:09:54;7.30;;;3.42;;
56073;SDS011;41950;55.840;37.442;2023-07-13T03:12:21;4.55;;;2.90;;
56073;SDS011;41950;55.840;37.442;2023-07-13T03:14:47;6.47;;;3.42;;
56073;SDS011;41950;55.840;37.442;2023-07-13T03:17:13;5.20;;;2.55;;
56073;SDS011;41950;55.840;37.442;2023-07-13T03:19:38;5.82;;;2.80;;
56073;SDS011;41950;55.840;37.442;2023-07-13T03:22:04;5.22;;;2.80;;
56073;SDS011;41950;55.840;37.442;2023-07-13T03:24:32;4.88;;;2.58;;
56073;SDS011;41950;55.840;37.442;2023-07-13T03:27:00;5.00;;;2.80;;
56073;SDS011;41950;55.840;37.442;2023-07-13T03:29:27;4.50;;;2.70;;
56073;SDS011;41950;55.840;37.442;2023-07-13T03:31:52;4.53;;;2.70;;
56073;SDS011;41950;55.840;37.442;2023-07-13T03:34:18;4.20;;;2.65;;
56073;SDS011;41950;55.840;37.442;2023-07-13T03:36:44;5.15;;;2.75;;
56073;SDS011;41950;55.840;37.442;2023-07-13T03:39:09;3.75;;;2.50;;
56073;SDS011;41950;55.840;37.442;2023-07-13T03:41:35;6.00;;;3.03;;
56073;SDS011;41950;55.840;37.442;2023-07-13T03:44:01;3.70;;;2.30;;
56073;SDS011;41950;55.840;37.442;2023-07-13T03:46:26;5.00;;;2.55;;
56073;SDS011;41950;55.840;37.442;2023-07-13T03:48:52;4.40;;;2.63;;
56073;SDS011;41950;55.840;37.442;2023-07-13T03:51:18;5.70;;;3.05;;
56073;SDS011;41950;55.840;37.442;2023-07-13T03:53:44;3.30;;;2.45;;
56073;SDS011;41950;55.840;37.442;2023-07-13T03:56:12;6.95;;;2.72;;
56073;SDS011;41950;55.840;37.442;2023-07-13T03:58:40;5.53;;;2.50;;
56073;SDS011;41950;55.840;37.442;2023-07-13T04:01:08;4.75;;;2.75;;
56073;SDS011;41950;55.840;37.442;2023-07-13T04:03:35;4.55;;;2.67;;
56073;SDS011;41950;55.840;37.442;2023-07-13T04:06:02;5.65;;;2.88;;
56073;SDS011;41950;55.840;37.442;2023-07-13T04:08:30;4.63;;;2.50;;
56073;SDS011;41950;55.840;37.442;2023-07-13T04:10:58;4.40;;;2.45;;
56073;SDS011;41950;55.840;37.442;2023-07-13T04:13:24;3.17;;;2.20;;
56073;SDS011;41950;55.840;37.442;2023-07-13T04:15:51;4.75;;;2.10;;
56073;SDS011;41950;55.840;37.442;2023-07-13T04:18:17;4.47;;;2.53;;
56073;SDS011;41950;55.840;37.442;2023-07-13T04:20:45;5.88;;;2.90;;
56073;SDS011;41950;55.840;37.442;2023-07-13T04:23:16;6.10;;;2.33;;
56073;SDS011;41950;55.840;37.442;2023-07-13T04:25:48;4.10;;;2.20;;
56073;SDS011;41950;55.840;37.442;2023-07-13T04:28:19;4.65;;;3.10;;
56073;SDS011;41950;55.840;37.442;2023-07-13T04:30:46;5.25;;;3.17;;
56073;SDS011;41950;55.840;37.442;2023-07-13T04:33:12;5.43;;;2.47;;
56073;SDS011;41950;55.840;37.442;2023-07-13T04:35:37;6.82;;;2.70;;
56073;SDS011;41950;55.840;37.442;2023-07-13T04:38:03;4.80;;;2.70;;
56073;SDS011;41950;55.840;37.442;2023-07-13T04:40:29;6.40;;;2.72;;
56073;SDS011;41950;55.840;37.442;2023-07-13T04:42:55;7.32;;;2.72;;
56073;SDS011;41950;55.840;37.442;2023-07-13T04:45:21;4.53;;;2.72;;
56073;SDS011;41950;55.840;37.442;2023-07-13T04:47:49;4.72;;;2.33;;
56073;SDS011;41950;55.840;37.442;2023-07-13T04:50:15;4.20;;;2.30;;
56073;SDS011;41950;55.840;37.442;2023-07-13T04:52:45;3.65;;;2.35;;
56073;SDS011;41950;55.840;37.442;2023-07-13T04:55:10;4.13;;;2.70;;
56073;SDS011;41950;55.840;37.442;2023-07-13T04:57:36;6.03;;;2.63;;
56073;SDS011;41950;55.840;37.442;2023-07-13T05:00:03;5.05;;;2.67;;
56073;SDS011;41950;55.840;37.442;2023-07-13T05:02:32;4.80;;;2.38;;
56073;SDS011;41950;55.840;37.442;2023-07-13T05:04:59;4.20;;;2.17;;
56073;SDS011;41950;55.840;37.442;2023-07-13T05:07:25;5.25;;;2.38;;
56073;SDS011;41950;55.840;37.442;2023-07-13T05:09:51;4.90;;;2.35;;
56073;SDS011;41950;55.840;37.442;2023-07-13T05:12:17;3.90;;;2.20;;
56073;SDS011;41950;55.840;37.442;2023-07-13T05:14:43;4.75;;;2.55;;
56073;SDS011;41950;55.840;37.442;2023-07-13T05:17:09;4.00;;;1.95;;
56073;SDS011;41950;55.840;37.442;2023-07-13T05:19:35;4.25;;;2.17;;
56073;SDS011;41950;55.840;37.442;2023-07-13T05:22:00;4.88;;;2.40;;
56073;SDS011;41950;55.840;37.442;2023-07-13T05:24:27;4.63;;;2.30;;
56073;SDS011;41950;55.840;37.442;2023-07-13T05:26:53;4.28;;;2.00;;
56073;SDS011;41950;55.840;37.442;2023-07-13T05:29:19;4.97;;;2.30;;
56073;SDS011;41950;55.840;37.442;2023-07-13T05:31:46;3.53;;;2.25;;
56073;SDS011;41950;55.840;37.442;2023-07-13T05:34:12;4.63;;;2.08;;
56073;SDS011;41950;55.840;37.442;2023-07-13T05:36:37;4.60;;;2.15;;
56073;SDS011;41950;55.840;37.442;2023-07-13T05:39:03;4.32;;;2.30;;
56073;SDS011;41950;55.840;37.442;2023-07-13T05:41:29;3.88;;;2.08;;
56073;SDS011;41950;55.840;37.442;2023-07-13T05:43:55;3.78;;;2.25;;
56073;SDS011;41950;55.840;37.442;2023-07-13T05:46:21;4.30;;;2.65;;
56073;SDS011;41950;55.840;37.442;2023-07-13T05:48:47;4.90;;;2.15;;
56073;SDS011;41950;55.840;37.442;2023-07-13T05:51:13;6.57;;;2.40;;
56073;SDS011;41950;55.840;37.442;2023-07-13T05:53:39;3.83;;;2.15;;
56073;SDS011;41950;55.840;37.442;2023-07-13T05:56:04;4.55;;;2.40;;
56073;SDS011;41950;55.840;37.442;2023-07-13T05:58:30;4.10;;;2.40;;
56073;SDS011;41950;55.840;37.442;2023-07-13T06:01:00;3.80;;;2.30;;
56073;SDS011;41950;55.840;37.442;2023-07-13T06:03:30;3.03;;;2.10;;
56073;SDS011;41950;55.840;37.442;2023-07-13T06:05:56;4.43;;;2.05;;
56073;SDS011;41950;55.840;37.442;2023-07-13T06:08:22;4.05;;;2.15;;
56073;SDS011;41950;55.840;37.442;2023-07-13T06:10:48;5.85;;;2.20;;
56073;SDS011;41950;55.840;37.442;2023-07-13T06:13:13;4.05;;;2.00;;
56073;SDS011;41950;55.840;37.442;2023-07-13T06:15:39;4.65;;;2.20;;
56073;SDS011;41950;55.840;37.442;2023-07-13T06:18:05;4.78;;;2.00;;
56073;SDS011;41950;55.840;37.442;2023-07-13T06:20:33;4.55;;;2.40;;
56073;SDS011;41950;55.840;37.442;2023-07-13T06:22:59;4.07;;;1.92;;
56073;SDS011;41950;55.840;37.442;2023-07-13T06:25:26;4.68;;;2.13;;
56073;SDS011;41950;55.840;37.442;2023-07-13T06:27:52;5.47;;;2.10;;
56073;SDS011;41950;55.840;37.442;2023-07-13T06:30:18;4.78;;;2.17;;
56073;SDS011;41950;55.840;37.442;2023-07-13T06:32:43;3.58;;;1.95;;
56073;SDS011;41950;55.840;37.442;2023-07-13T06:35:09;4.25;;;1.95;;
56073;SDS011;41950;55.840;37.442;2023-07-13T06:37:37;3.85;;;1.83;;
56073;SDS011;41950;55.840;37.442;2023-07-13T06:40:03;5.82;;;2.10;;
56073;SDS011;41950;55.840;37.442;2023-07-13T06:42:29;5.15;;;2.40;;
56073;SDS011;41950;55.840;37.442;2023-07-13T06:44:55;4.07;;;1.88;;
56073;SDS011;41950;55.840;37.442;2023-07-13T06:47:21;4.00;;;1.90;;
56073;SDS011;41950;55.840;37.442;2023-07-13T06:49:46;4.15;;;1.88;;
56073;SDS011;41950;55.840;37.442;2023-07-13T06:52:12;4.72;;;2.15;;
56073;SDS011;41950;55.840;37.442;2023-07-13T06:54:38;5.80;;;2.30;;
56073;SDS011;41950;55.840;37.442;2023-07-13T06:57:04;5.75;;;2.00;;
56073;SDS011;41950;55.840;37.442;2023-07-13T06:59:30;6.50;;;2.08;;
56073;SDS011;41950;55.840;37.442;2023-07-13T07:01:55;3.75;;;1.73;;
56073;SDS011;41950;55.840;37.442;2023-07-13T07:04:21;3.80;;;1.75;;
56073;SDS011;41950;55.840;37.442;2023-07-13T07:06:47;4.65;;;2.17;;
56073;SDS011;41950;55.840;37.442;2023-07-13T07:09:12;5.53;;;1.90;;
56073;SDS011;41950;55.840;37.442;2023-07-13T07:11:39;5.82;;;2.30;;
56073;SDS011;41950;55.840;37.442;2023-07-13T07:14:04;5.97;;;2.22;;
56073;SDS011;41950;55.840;37.442;2023-07-13T07:16:30;4.15;;;2.08;;
56073;SDS011;41950;55.840;37.442;2023-07-13T07:18:56;5.68;;;1.95;;
56073;SDS011;41950;55.840;37.442;2023-07-13T07:21:22;5.07;;;2.00;;
56073;SDS011;41950;55.840;37.442;2023-07-13T07:23:48;4.80;;;2.10;;
56073;SDS011;41950;55.840;37.442;2023-07-13T07:26:14;5.10;;;2.03;;
56073;SDS011;41950;55.840;37.442;2023-07-13T07:28:40;4.53;;;2.13;;
56073;SDS011;41950;55.840;37.442;2023-07-13T07:31:05;6.03;;;2.10;;
56073;SDS011;41950;55.840;37.442;2023-07-13T07:33:32;6.38;;;2.03;;
56073;SDS011;41950;55.840;37.442;2023-07-13T07:35:59;4.03;;;2.10;;
56073;SDS011;41950;55.840;37.442;2023-07-13T07:38:26;5.03;;;2.33;;
56073;SDS011;41950;55.840;37.442;2023-07-13T07:40:52;3.30;;;1.80;;
56073;SDS011;41950;55.840;37.442;2023-07-13T07:43:17;5.13;;;2.22;;
56073;SDS011;41950;55.840;37.442;2023-07-13T07:45:44;5.43;;;2.17;;
56073;SDS011;41950;55.840;37.442;2023-07-13T07:48:10;5.38;;;2.20;;
56073;SDS011;41950;55.840;37.442;2023-07-13T07:50:37;3.20;;;1.80;;
56073;SDS011;41950;55.840;37.442;2023-07-13T07:53:04;6.00;;;2.10;;
56073;SDS011;41950;55.840;37.442;2023-07-13T07:55:33;4.15;;;1.60;;
56073;SDS011;41950;55.840;37.442;2023-07-13T07:58:00;3.80;;;2.10;;
56073;SDS011;41950;55.840;37.442;2023-07-13T08:00:26;5.10;;;2.00;;
56073;SDS011;41950;55.840;37.442;2023-07-13T08:02:53;4.93;;;1.98;;
56073;SDS011;41950;55.840;37.442;2023-07-13T08:05:18;4.88;;;1.88;;
56073;SDS011;41950;55.840;37.442;2023-07-13T08:07:44;5.25;;;2.67;;
56073;SDS011;41950;55.840;37.442;2023-07-13T08:10:10;4.78;;;2.33;;
56073;SDS011;41950;55.840;37.442;2023-07-13T08:12:39;3.75;;;2.10;;
56073;SDS011;41950;55.840;37.442;2023-07-13T08:15:06;5.32;;;2.50;;
56073;SDS011;41950;55.840;37.442;2023-07-13T08:17:35;6.40;;;2.70;;
56073;SDS011;41950;55.840;37.442;2023-07-13T08:20:01;4.05;;;2.63;;
56073;SDS011;41950;55.840;37.442;2023-07-13T08:22:29;5.38;;;2.20;;
56073;SDS011;41950;55.840;37.442;2023-07-13T08:24:55;5.78;;;2.30;;
56073;SDS011;41950;55.840;37.442;2023-07-13T08:27:22;5.55;;;2.30;;
56073;SDS011;41950;55.840;37.442;2023-07-13T08:29:48;5.70;;;2.53;;
56073;SDS011;41950;55.840;37.442;2023-07-13T08:32:14;5.43;;;2.58;;
56073;SDS011;41950;55.840;37.442;2023-07-13T08:34:40;4.65;;;2.63;;
56073;SDS011;41950;55.840;37.442;2023-07-13T08:37:06;6.57;;;2.42;;
56073;SDS011;41950;55.840;37.442;2023-07-13T08:39:34;4.93;;;2.20;;
56073;SDS011;41950;55.840;37.442;2023-07-13T08:42:05;5.07;;;2.00;;
56073;SDS011;41950;55.840;37.442;2023-07-13T08:47:29;6.03;;;2.47;;
56073;SDS011;41950;55.840;37.442;2023-07-13T08:49:57;3.35;;;1.88;;
56073;SDS011;41950;55.840;37.442;2023-07-13T08:52:29;4.95;;;2.40;;
56073;SDS011;41950;55.840;37.442;2023-07-13T08:55:01;4.78;;;2.47;;
56073;SDS011;41950;55.840;37.442;2023-07-13T08:57:35;6.80;;;4.03;;
56073;SDS011;41950;55.840;37.442;2023-07-13T09:00:01;4.82;;;2.70;;
56073;SDS011;41950;55.840;37.442;2023-07-13T09:02:39;5.35;;;2.85;;
56073;SDS011;41950;55.840;37.442;2023-07-13T09:05:25;5.85;;;2.75;;
56073;SDS011;41950;55.840;37.442;2023-07-13T09:14:03;5.20;;;3.70;;
56073;SDS011;41950;55.840;37.442;2023-07-13T09:16:45;4.25;;;2.50;;
56073;SDS011;41950;55.840;37.442;2023-07-13T09:19:16;6.18;;;2.65;;
56073;SDS011;41950;55.840;37.442;2023-07-13T09:21:52;4.38;;;3.08;;
56073;SDS011;41950;55.840;37.442;2023-07-13T09:26:48;6.18;;;3.30;;
56073;SDS011;41950;55.840;37.442;2023-07-13T09:29:17;6.40;;;3.30;;
56073;SDS011;41950;55.840;37.442;2023-07-13T09:31:53;6.35;;;3.30;;
56073;SDS011;41950;55.840;37.442;2023-07-13T09:34:23;5.50;;;3.53;;
56073;SDS011;41950;55.840;37.442;2023-07-13T09:36:50;5.60;;;3.20;;
56073;SDS011;41950;55.840;37.442;2023-07-13T09:39:22;7.70;;;3.50;;
56073;SDS011;41950;55.840;37.442;2023-07-13T09:44:37;5.95;;;3.20;;
56073;SDS011;41950;55.840;37.442;2023-07-13T09:47:16;5.90;;;3.00;;
56073;SDS011;41950;55.840;37.442;2023-07-13T09:49:47;4.85;;;3.08;;
56073;SDS011;41950;55.840;37.442;2023-07-13T09:52:18;5.93;;;3.10;;
56073;SDS011;41950;55.840;37.442;2023-07-13T09:54:45;5.88;;;3.10;;
56073;SDS011;41950;55.840;37.442;2023-07-13T09:57:14;6.43;;;3.15;;
56073;SDS011;41950;55.840;37.442;2023-07-13T09:59:48;5.53;;;3.10;;
56073;SDS011;41950;55.840;37.442;2023-07-13T10:02:23;5.40;;;2.42;;
56073;SDS011;41950;55.840;37.442;2023-07-13T10:04:55;4.65;;;3.05;;
56073;SDS011;41950;55.840;37.442;2023-07-13T10:07:39;5.93;;;3.10;;
56073;SDS011;41950;55.840;37.442;2023-07-13T10:10:20;7.80;;;3.58;;
56073;SDS011;41950;55.840;37.442;2023-07-13T10:12:48;4.75;;;2.92;;
56073;SDS011;41950;55.840;37.442;2023-07-13T10:15:16;6.47;;;3.72;;
56073;SDS011;41950;55.840;37.442;2023-07-13T10:17:44;5.97;;;3.15;;
56073;SDS011;41950;55.840;37.442;2023-07-13T10:20:10;5.28;;;3.38;;
56073;SDS011;41950;55.840;37.442;2023-07-13T10:25:23;5.18;;;3.30;;
56073;SDS011;41950;55.840;37.442;2023-07-13T10:27:51;5.30;;;2.80;;
56073;SDS011;41950;55.840;37.442;2023-07-13T10:30:25;6.18;;;3.72;;
56073;SDS011;41950;55.840;37.442;2023-07-13T10:32:57;5.78;;;2.70;;
56073;SDS011;41950;55.840;37.442;2023-07-13T10:35:25;5.07;;;3.30;;
56073;SDS011;41950;55.840;37.442;2023-07-13T10:37:56;6.32;;;3.63;;
56073;SDS011;41950;55.840;37.442;2023-07-13T10:43:18;4.68;;;3.15;;
56073;SDS011;41950;55.840;37.442;2023-07-13T10:46:04;4.57;;;2.92;;
56073;SDS011;41950;55.840;37.442;2023-07-13T10:48:33;5.72;;;3.63;;
56073;SDS011;41950;55.840;37.442;2023-07-13T10:51:02;5.95;;;3.65;;
56073;SDS011;41950;55.840;37.442;2023-07-13T10:53:33;6.18;;;3.72;;
56073;SDS011;41950;55.840;37.442;2023-07-13T10:58:38;5.43;;;3.03;;
56073;SDS011;41950;55.840;37.442;2023-07-13T11:01:12;5.28;;;3.00;;
56073;SDS011;41950;55.840;37.442;2023-07-13T11:06:29;7.00;;;3.10;;
56073;SDS011;41950;55.840;37.442;2023-07-13T11:08:57;5.43;;;2.80;;
56073;SDS011;41950;55.840;37.442;2023-07-13T11:11:32;6.47;;;3.05;;
56073;SDS011;41950;55.840;37.442;2023-07-13T11:14:00;5.68;;;2.85;;
56073;SDS011;41950;55.840;37.442;2023-07-13T11:17:03;5.10;;;3.15;;
56073;SDS011;41950;55.840;37.442;2023-07-13T11:22:22;4.75;;;3.08;;
56073;SDS011;41950;55.840;37.442;2023-07-13T11:25:00;5.75;;;2.80;;
56073;SDS011;41950;55.840;37.442;2023-07-13T11:27:49;6.10;;;3.60;;
56073;SDS011;41950;55.840;37.442;2023-07-13T11:35:49;6.22;;;3.80;;
56073;SDS011;41950;55.840;37.442;2023-07-13T11:38:43;7.35;;;3.80;;
56073;SDS011;41950;55.840;37.442;2023-07-13T11:41:17;6.43;;;4.38;;
56073;SDS011;41950;55.840;37.442;2023-07-13T11:43:49;6.63;;;3.08;;
56073;SDS011;41950;55.840;37.442;2023-07-13T11:46:22;5.95;;;3.92;;
56073;SDS011;41950;55.840;37.442;2023-07-13T11:48:50;7.22;;;4.47;;
56073;SDS011;41950;55.840;37.442;2023-07-13T11:51:37;6.45;;;4.40;;
56073;SDS011;41950;55.840;37.442;2023-07-13T11:54:03;7.90;;;4.10;;
56073;SDS011;41950;55.840;37.442;2023-07-13T11:56:33;7.15;;;4.15;;
56073;SDS011;41950;55.840;37.442;2023-07-13T11:59:02;8.27;;;4.40;;
56073;SDS011;41950;55.840;37.442;2023-07-13T12:01:31;7.05;;;4.70;;
56073;SDS011;41950;55.840;37.442;2023-07-13T12:04:01;6.82;;;4.68;;
56073;SDS011;41950;55.840;37.442;2023-07-13T12:06:32;7.20;;;4.70;;
56073;SDS011;41950;55.840;37.442;2023-07-13T12:09:03;9.27;;;4.93;;
56073;SDS011;41950;55.840;37.442;2023-07-13T12:11:39;9.77;;;4.80;;
56073;SDS011;41950;55.840;37.442;2023-07-13T12:14:12;7.93;;;4.50;;
56073;SDS011;41950;55.840;37.442;2023-07-13T12:16:40;8.82;;;4.97;;
56073;SDS011;41950;55.840;37.442;2023-07-13T12:19:09;7.65;;;4.70;;
56073;SDS011;41950;55.840;37.442;2023-07-13T12:21:42;5.95;;;3.97;;
56073;SDS011;41950;55.840;37.442;2023-07-13T12:24:16;7.00;;;4.28;;
56073;SDS011;41950;55.840;37.442;2023-07-13T12:26:43;6.88;;;4.07;;
56073;SDS011;41950;55.840;37.442;2023-07-13T12:29:16;10.93;;;9.63;;
56073;SDS011;41950;55.840;37.442;2023-07-13T12:31:43;7.07;;;4.00;;
56073;SDS011;41950;55.840;37.442;2023-07-13T12:34:13;7.75;;;4.18;;
56073;SDS011;41950;55.840;37.442;2023-07-13T12:36:48;5.95;;;3.70;;
56073;SDS011;41950;55.840;37.442;2023-07-13T12:41:49;6.20;;;4.70;;
56073;SDS011;41950;55.840;37.442;2023-07-13T12:44:27;6.43;;;3.50;;
56073;SDS011;41950;55.840;37.442;2023-07-13T12:47:03;7.32;;;3.90;;
56073;SDS011;41950;55.840;37.442;2023-07-13T12:49:39;5.95;;;3.90;;
56073;SDS011;41950;55.840;37.442;2023-07-13T12:52:14;5.13;;;3.67;;
56073;SDS011;41950;55.840;37.442;2023-07-13T12:54:53;8.48;;;4.13;;
56073;SDS011;41950;55.840;37.442;2023-07-13T12:57:24;6.40;;;3.65;;
56073;SDS011;41950;55.840;37.442;2023-07-13T12:59:52;7.60;;;4.10;;
56073;SDS011;41950;55.840;37.442;2023-07-13T13:05:00;5.13;;;3.20;;
56073;SDS011;41950;55.840;37.442;2023-07-13T13:07:29;4.82;;;3.53;;
56073;SDS011;41950;55.840;37.442;2023-07-13T13:09:55;6.38;;;3.30;;
56073;SDS011;41950;55.840;37.442;2023-07-13T13:12:21;6.90;;;3.40;;
56073;SDS011;41950;55.840;37.442;2023-07-13T13:14:50;7.80;;;3.88;;
56073;SDS011;41950;55.840;37.442;2023-07-13T13:17:19;7.72;;;4.45;;
56073;SDS011;41950;55.840;37.442;2023-07-13T13:19:53;7.75;;;3.70;;
56073;SDS011;41950;55.840;37.442;2023-07-13T13:22:20;7.40;;;4.10;;
56073;SDS011;41950;55.840;37.442;2023-07-13T13:24:46;6.78;;;3.92;;
56073;SDS011;41950;55.840;37.442;2023-07-13T13:27:16;6.88;;;3.75;;
56073;SDS011;41950;55.840;37.442;2023-07-13T13:29:44;5.57;;;3.90;;
56073;SDS011;41950;55.840;37.442;2023-07-13T13:32:13;7.15;;;4.35;;
56073;SDS011;41950;55.840;37.442;2023-07-13T13:34:40;5.60;;;3.28;;
56073;SDS011;41950;55.840;37.442;2023-07-13T13:37:24;6.13;;;3.97;;
56073;SDS011;41950;55.840;37.442;2023-07-13T13:39:51;8.82;;;4.32;;
56073;SDS011;41950;55.840;37.442;2023-07-13T13:42:19;5.32;;;4.20;;
56073;SDS011;41950;55.840;37.442;2023-07-13T13:44:46;7.85;;;4.25;;
56073;SDS011;41950;55.840;37.442;2023-07-13T13:50:14;6.28;;;4.53;;
56073;SDS011;41950;55.840;37.442;2023-07-13T13:55:11;9.07;;;4.43;;
56073;SDS011;41950;55.840;37.442;2023-07-13T13:57:40;8.38;;;4.50;;
56073;SDS011;41950;55.840;37.442;2023-07-13T14:00:07;8.73;;;4.78;;
56073;SDS011;41950;55.840;37.442;2023-07-13T14:02:34;7.82;;;4.45;;
56073;SDS011;41950;55.840;37.442;2023-07-13T14:05:01;10.57;;;5.30;;
56073;SDS011;41950;55.840;37.442;2023-07-13T14:07:29;8.52;;;3.92;;
56073;SDS011;41950;55.840;37.442;2023-07-13T14:09:56;9.85;;;5.30;;
56073;SDS011;41950;55.840;37.442;2023-07-13T14:12:24;8.43;;;5.20;;
56073;SDS011;41950;55.840;37.442;2023-07-13T14:14:53;10.18;;;6.18;;
56073;SDS011;41950;55.840;37.442;2023-07-13T14:17:20;9.63;;;5.63;;
56073;SDS011;41950;55.840;37.442;2023-07-13T14:19:52;8.73;;;5.45;;
56073;SDS011;41950;55.840;37.442;2023-07-13T14:22:25;9.93;;;5.47;;
56073;SDS011;41950;55.840;37.442;2023-07-13T14:24:52;10.02;;;5.40;;
56073;SDS011;41950;55.840;37.442;2023-07-13T14:27:19;11.13;;;5.72;;
56073;SDS011;41950;55.840;37.442;2023-07-13T14:29:45;8.30;;;4.53;;
56073;SDS011;41950;55.840;37.442;2023-07-13T14:32:12;8.88;;;4.82;;
56073;SDS011;41950;55.840;37.442;2023-07-13T14:34:39;7.22;;;4.43;;
56073;SDS011;41950;55.840;37.442;2023-07-13T14:37:05;6.45;;;3.95;;
56073;SDS011;41950;55.840;37.442;2023-07-13T14:39:37;7.28;;;3.88;;
56073;SDS011;41950;55.840;37.442;2023-07-13T14:42:08;7.97;;;3.60;;
56073;SDS011;41950;55.840;37.442;2023-07-13T14:44:39;8.32;;;4.25;;
56073;SDS011;41950;55.840;37.442;2023-07-13T14:47:05;6.22;;;3.70;;
56073;SDS011;41950;55.840;37.442;2023-07-13T14:52:18;5.55;;;3.47;;
56073;SDS011;41950;55.840;37.442;2023-07-13T14:54:46;5.32;;;2.92;;
56073;SDS011;41950;55.840;37.442;2023-07-13T14:57:13;5.20;;;3.30;;
56073;SDS011;41950;55.840;37.442;2023-07-13T14:59:40;5.93;;;2.75;;
56073;SDS011;41950;55.840;37.442;2023-07-13T15:04:49;5.00;;;2.72;;
56073;SDS011;41950;55.840;37.442;2023-07-13T15:07:15;4.70;;;3.00;;
56073;SDS011;41950;55.840;37.442;2023-07-13T15:09:43;13.18;;;11.88;;
56073;SDS011;41950;55.840;37.442;2023-07-13T15:12:08;5.43;;;2.75;;
56073;SDS011;41950;55.840;37.442;2023-07-13T15:14:34;5.50;;;3.03;;
56073;SDS011;41950;55.840;37.442;2023-07-13T15:17:00;5.88;;;3.10;;
56073;SDS011;41950;55.840;37.442;2023-07-13T15:19:26;6.35;;;2.78;;
56073;SDS011;41950;55.840;37.442;2023-07-13T15:21:52;5.72;;;2.70;;
56073;SDS011;41950;55.840;37.442;2023-07-13T15:24:20;4.47;;;2.92;;
56073;SDS011;41950;55.840;37.442;2023-07-13T15:26:47;4.85;;;2.55;;
56073;SDS011;41950;55.840;37.442;2023-07-13T15:29:14;3.97;;;2.63;;
56073;SDS011;41950;55.840;37.442;2023-07-13T15:31:41;4.68;;;2.90;;